createdAt,value
2022-09-28T00:00:15.435Z,6.69
2022-09-28T00:02:45.540Z,6.58
2022-09-28T00:05:15.716Z,6.58
2022-09-28T00:07:45.588Z,6.93
2022-09-28T00:10:16.054Z,6.82
2022-09-28T00:12:45.640Z,6.74
2022-09-28T00:15:15.196Z,6.75
2022-09-28T00:17:47.827Z,6.85
2022-09-28T00:20:18.077Z,6.83
2022-09-28T00:22:48.151Z,6.87
2022-09-28T00:25:18.159Z,6.89
2022-09-28T00:27:52.233Z,6.79
2022-09-28T00:30:22.592Z,6.89
2022-09-28T00:32:52.764Z,6.85
2022-09-28T00:35:22.344Z,6.90
2022-09-28T00:37:52.211Z,6.93
2022-09-28T00:40:21.777Z,6.90
2022-09-28T00:42:51.650Z,6.96
2022-09-28T00:45:22.535Z,6.88
2022-09-28T00:47:56.237Z,7.04
2022-09-28T00:50:32.169Z,7.04
2022-09-28T00:53:15.911Z,6.96
2022-09-28T00:55:51.542Z,6.94
2022-09-28T00:58:24.336Z,6.93
2022-09-28T01:00:56.526Z,7.20
2022-09-28T01:03:29.301Z,7.09
2022-09-28T01:06:02.436Z,7.03
2022-09-28T01:08:34.401Z,6.98
2022-09-28T01:11:06.403Z,6.90
2022-09-28T01:13:37.120Z,7.16
2022-09-28T01:16:44.756Z,7.16
2022-09-28T01:19:55.297Z,7.00
2022-09-28T01:22:37.107Z,6.91
2022-09-28T01:25:34.711Z,6.95
2022-09-28T01:28:07.849Z,6.82
2022-09-28T01:30:46.556Z,6.73
2022-09-28T01:33:20.470Z,6.70
2022-09-28T01:35:53.317Z,6.70
2022-09-28T01:38:28.893Z,6.57
2022-09-28T01:41:01.713Z,6.57
2022-09-28T01:43:34.606Z,6.53
2022-09-28T01:46:21.634Z,6.47
2022-09-28T01:48:54.826Z,6.64
2022-09-28T01:51:39.521Z,6.69
2022-09-28T01:54:12.365Z,6.40
2022-09-28T01:56:52.569Z,6.28
2022-09-28T01:59:25.172Z,6.18
2022-09-28T02:01:58.238Z,6.13
2022-09-28T02:04:36.757Z,6.20
2022-09-28T02:07:09.847Z,6.13
2022-09-28T02:09:45.447Z,5.96
2022-09-28T02:12:23.869Z,5.98
2022-09-28T02:14:56.642Z,5.97
2022-09-28T02:17:27.573Z,5.89
2022-09-28T02:20:04.689Z,5.89
2022-09-28T02:22:46.903Z,5.86
2022-09-28T02:25:43.885Z,5.89
2022-09-28T02:28:14.834Z,5.86
2022-09-28T02:30:46.073Z,5.86
2022-09-28T02:33:21.661Z,5.87
2022-09-28T02:35:52.190Z,5.87
2022-09-28T02:38:22.113Z,5.88
2022-09-28T02:40:58.842Z,5.89
2022-09-28T02:43:34.316Z,5.92
2022-09-28T02:46:16.279Z,6.03
2022-09-28T02:49:04.879Z,6.03
2022-09-28T02:51:41.656Z,6.00
2022-09-28T02:54:36.396Z,6.03
2022-09-28T02:57:15.686Z,6.12
2022-09-28T02:59:54.769Z,6.11
2022-09-28T03:03:00.820Z,6.16
2022-09-28T03:05:39.906Z,6.37
2022-09-28T03:08:18.960Z,6.41
2022-09-28T03:10:58.092Z,6.27
2022-09-28T03:13:29.429Z,6.12
2022-09-28T03:16:13.956Z,6.15
2022-09-28T03:18:44.574Z,6.20
2022-09-28T03:21:15.071Z,6.23
2022-09-28T03:23:45.454Z,6.26
2022-09-28T03:26:16.868Z,6.32
2022-09-28T03:28:46.732Z,6.34
2022-09-28T03:31:18.301Z,6.38
2022-09-28T03:33:48.169Z,6.44
2022-09-28T03:36:18.125Z,6.46
2022-09-28T03:38:47.848Z,6.50
2022-09-28T03:41:21.976Z,6.53
2022-09-28T03:43:51.908Z,6.54
2022-09-28T03:46:21.619Z,6.54
2022-09-28T03:48:53.094Z,6.55
2022-09-28T03:51:22.724Z,6.56
2022-09-28T03:53:53.511Z,6.61
2022-09-28T03:56:23.364Z,6.58
2022-09-28T03:58:53.167Z,6.55
2022-09-28T04:01:23.024Z,6.54
2022-09-28T04:03:56.929Z,6.43
2022-09-28T04:06:34.931Z,6.43
2022-09-28T04:09:07.806Z,6.47
2022-09-28T04:11:53.145Z,6.51
2022-09-28T04:14:10.290Z,6.53
2022-09-28T04:16:39.949Z,6.49
2022-09-28T04:19:11.445Z,6.48
2022-09-28T04:21:44.948Z,6.36
2022-09-28T04:24:16.234Z,6.43
2022-09-28T04:26:46.029Z,6.41
2022-09-28T04:29:19.400Z,6.30
2022-09-28T04:32:01.596Z,6.37
2022-09-28T04:34:43.720Z,6.41
2022-09-28T04:37:15.105Z,6.30
2022-09-28T04:39:48.561Z,6.52
2022-09-28T04:42:19.582Z,6.41
2022-09-28T04:44:51.093Z,6.40
2022-09-28T04:47:20.881Z,6.42
2022-09-28T04:50:09.474Z,6.48
2022-09-28T04:52:40.975Z,6.51
2022-09-28T04:55:14.432Z,6.47
2022-09-28T04:57:44.221Z,6.45
2022-09-28T05:00:15.727Z,6.53
2022-09-28T05:02:47.236Z,6.58
2022-09-28T05:05:24.797Z,6.88
2022-09-28T05:08:00.691Z,6.85
2022-09-28T05:10:30.644Z,6.76
2022-09-28T05:13:04.082Z,6.73
2022-09-28T05:15:36.109Z,6.74
2022-09-28T05:18:07.637Z,6.80
2022-09-28T05:20:45.007Z,6.77
2022-09-28T05:23:20.911Z,6.78
2022-09-28T05:25:51.048Z,6.99
2022-09-28T05:28:25.596Z,7.18
2022-09-28T05:31:05.422Z,7.33
2022-09-28T05:33:53.451Z,7.27
2022-09-28T05:36:24.514Z,7.22
2022-09-28T05:39:12.599Z,7.45
2022-09-28T05:41:42.425Z,7.33
2022-09-28T05:44:12.215Z,7.20
2022-09-28T05:46:42.170Z,7.30
2022-09-28T05:49:13.118Z,7.24
2022-09-28T05:51:43.029Z,7.20
2022-09-28T05:54:12.678Z,7.29
2022-09-28T05:56:49.550Z,7.24
2022-09-28T05:59:19.127Z,7.33
2022-09-28T06:01:48.940Z,7.41
2022-09-28T06:04:19.041Z,7.55
2022-09-28T06:06:50.279Z,7.69
2022-09-28T06:09:25.151Z,7.72
2022-09-28T06:11:54.727Z,7.75
2022-09-28T06:14:29.167Z,7.82
2022-09-28T06:16:59.523Z,8.05
2022-09-28T06:19:29.438Z,8.22
2022-09-28T06:22:01.034Z,8.22
2022-09-28T06:24:32.665Z,8.35
2022-09-28T06:27:02.938Z,8.35
2022-09-28T06:29:32.801Z,8.46
2022-09-28T06:32:02.903Z,8.41
2022-09-28T06:34:32.698Z,8.42
2022-09-28T06:37:04.649Z,8.42
2022-09-28T06:39:35.071Z,8.44
2022-09-28T06:42:05.114Z,8.63
2022-09-28T06:44:42.319Z,8.63
2022-09-28T06:47:29.057Z,8.58
2022-09-28T06:50:01.018Z,8.58
2022-09-28T06:52:53.874Z,8.66
2022-09-28T06:55:29.260Z,8.71
2022-09-28T06:58:02.957Z,9.00
2022-09-28T07:00:35.875Z,9.06
2022-09-28T07:03:09.363Z,8.99
2022-09-28T07:05:46.444Z,9.03
2022-09-28T07:08:34.960Z,9.02
2022-09-28T07:11:08.755Z,9.15
2022-09-28T07:13:51.025Z,9.29
2022-09-28T07:16:17.661Z,9.94
2022-09-28T07:18:48.225Z,10.05
2022-09-28T07:21:28.313Z,10.27
2022-09-28T07:23:54.236Z,10.47
2022-09-28T07:26:29.052Z,10.84
2022-09-28T07:29:06.688Z,10.84
2022-09-28T07:31:44.180Z,11.05
2022-09-28T07:34:24.340Z,10.92
2022-09-28T07:36:59.518Z,10.63
2022-09-28T07:39:31.088Z,10.60
2022-09-28T07:42:02.912Z,11.28
2022-09-28T07:44:35.953Z,11.40
2022-09-28T07:47:06.988Z,11.51
2022-09-28T07:49:38.508Z,11.82
2022-09-28T07:52:19.362Z,12.11
2022-09-28T07:54:52.137Z,12.36
2022-09-28T07:57:30.112Z,11.94
2022-09-28T08:00:02.453Z,12.26
2022-09-28T08:02:34.818Z,12.53
2022-09-28T08:05:04.764Z,12.24
2022-09-28T08:07:36.214Z,12.02
2022-09-28T08:10:07.500Z,12.11
2022-09-28T08:13:00.565Z,12.31
2022-09-28T08:15:40.772Z,12.66
2022-09-28T08:21:13.694Z,13.51
2022-09-28T08:23:43.713Z,13.74
2022-09-28T08:26:15.685Z,12.98
2022-09-28T08:28:47.792Z,12.98
2022-09-28T08:31:34.849Z,13.51
2022-09-28T08:34:09.164Z,14.02
2022-09-28T08:36:53.010Z,13.32
2022-09-28T08:39:40.467Z,13.93
2022-09-28T08:42:32.697Z,13.93
2022-09-28T08:45:15.744Z,13.06
2022-09-28T08:48:10.942Z,12.56
2022-09-28T08:51:00.427Z,12.61
2022-09-28T08:53:56.135Z,13.03
2022-09-28T08:56:42.262Z,13.56
2022-09-28T08:59:18.800Z,14.09
2022-09-28T09:01:56.403Z,13.77
2022-09-28T09:04:24.575Z,13.34
2022-09-28T09:07:37.664Z,13.19
2022-09-28T09:10:14.842Z,13.14
2022-09-28T09:13:04.917Z,13.35
2022-09-28T09:15:41.594Z,12.92
2022-09-28T09:18:27.098Z,12.92
2022-09-28T09:21:02.307Z,13.12
2022-09-28T09:23:48.823Z,14.30
2022-09-28T09:26:26.274Z,13.99
2022-09-28T09:29:24.739Z,13.88
2022-09-28T09:32:04.036Z,14.14
2022-09-28T09:34:46.102Z,13.75
2022-09-28T09:38:00.305Z,12.98
2022-09-28T09:40:42.003Z,12.98
2022-09-28T09:43:31.776Z,13.23
2022-09-28T09:46:12.892Z,13.06
2022-09-28T09:49:11.313Z,12.95
2022-09-28T09:52:02.438Z,12.73
2022-09-28T09:54:47.060Z,12.68
2022-09-28T09:57:27.759Z,13.18
2022-09-28T10:00:16.392Z,13.51
2022-09-28T10:02:51.891Z,13.86
2022-09-28T10:05:28.955Z,14.05
2022-09-28T10:08:08.009Z,14.04
2022-09-28T10:10:41.274Z,13.91
2022-09-28T10:13:14.801Z,13.77
2022-09-28T10:15:46.882Z,13.95
2022-09-28T10:18:24.620Z,13.97
2022-09-28T10:21:20.052Z,13.66
2022-09-28T10:23:54.584Z,13.35
2022-09-28T10:26:27.284Z,13.24
2022-09-28T10:29:06.201Z,13.27
2022-09-28T10:31:51.269Z,13.25
2022-09-28T10:34:32.531Z,12.89
2022-09-28T10:37:07.675Z,12.90
2022-09-28T10:39:56.924Z,12.35
2022-09-28T10:42:33.826Z,12.35
2022-09-28T10:45:23.457Z,12.36
2022-09-28T10:47:54.054Z,12.46
2022-09-28T10:50:28.960Z,12.34
2022-09-28T10:53:15.090Z,12.07
2022-09-28T10:56:05.784Z,12.19
2022-09-28T10:58:42.070Z,11.58
2022-09-28T11:01:22.197Z,11.53
2022-09-28T11:04:01.039Z,11.36
2022-09-28T11:06:34.294Z,11.01
2022-09-28T11:09:07.361Z,10.77
2022-09-28T11:11:44.109Z,10.52
2022-09-28T11:14:42.946Z,10.33
2022-09-28T11:17:36.657Z,10.06
2022-09-28T11:20:28.236Z,9.83
2022-09-28T11:23:23.047Z,9.68
2022-09-28T11:26:09.350Z,9.66
2022-09-28T11:28:41.225Z,9.66
2022-09-28T11:31:14.966Z,9.70
2022-09-28T11:34:07.159Z,9.82
2022-09-28T11:36:47.137Z,9.72
2022-09-28T11:39:37.388Z,9.72
2022-09-28T11:42:23.336Z,9.63
2022-09-28T11:44:58.996Z,9.73
2022-09-28T11:47:40.341Z,9.80
2022-09-28T11:50:25.200Z,9.50
2022-09-28T11:53:03.930Z,9.72
2022-09-28T11:55:39.526Z,9.44
2022-09-28T11:58:20.771Z,9.32
2022-09-28T12:00:57.197Z,9.35
2022-09-28T12:03:43.818Z,9.43
2022-09-28T12:06:19.445Z,9.46
2022-09-28T12:08:53.655Z,9.59
2022-09-28T12:11:43.076Z,9.63
2022-09-28T12:14:32.155Z,9.74
2022-09-28T12:17:19.258Z,9.82
2022-09-28T12:19:57.923Z,9.81
2022-09-28T12:22:36.335Z,9.97
2022-09-28T12:25:09.613Z,10.13
2022-09-28T12:27:55.171Z,9.81
2022-09-28T12:30:26.291Z,9.94
2022-09-28T12:32:59.103Z,9.74
2022-09-28T12:35:35.026Z,9.79
2022-09-28T12:38:22.846Z,9.70
2022-09-28T12:41:05.475Z,9.32
2022-09-28T12:43:54.694Z,9.53
2022-09-28T12:46:48.293Z,9.85
2022-09-28T12:52:20.679Z,9.73
2022-09-28T12:54:56.482Z,9.90
2022-09-28T12:57:52.221Z,9.91
2022-09-28T13:00:26.144Z,10.00
2022-09-28T13:03:06.846Z,10.01
2022-09-28T13:06:13.137Z,10.05
2022-09-28T13:09:16.968Z,10.12
2022-09-28T13:11:58.980Z,10.22
2022-09-28T13:14:57.449Z,10.17
2022-09-28T13:17:48.006Z,10.25
2022-09-28T13:20:42.158Z,10.51
2022-09-28T13:23:17.229Z,10.43
2022-09-28T13:26:04.969Z,10.67
2022-09-28T13:28:37.425Z,10.70
2022-09-28T13:31:08.214Z,10.63
2022-09-28T13:33:41.067Z,10.57
2022-09-28T13:36:31.775Z,10.74
2022-09-28T13:39:02.364Z,10.70
2022-09-28T13:41:34.906Z,10.49
2022-09-28T13:44:16.989Z,10.23
2022-09-28T13:47:01.879Z,10.38
2022-09-28T13:49:40.827Z,10.38
2022-09-28T13:52:22.924Z,10.32
2022-09-28T13:54:59.097Z,10.32
2022-09-28T13:57:56.710Z,10.40
2022-09-28T14:00:47.747Z,10.42
2022-09-28T14:03:57.357Z,10.54
2022-09-28T14:06:34.408Z,10.30
2022-09-28T14:09:16.031Z,10.32
2022-09-28T14:12:00.652Z,10.08
2022-09-28T14:14:48.893Z,10.24
2022-09-28T14:17:31.173Z,10.20
2022-09-28T14:20:18.416Z,10.26
2022-09-28T14:23:01.009Z,10.24
2022-09-28T14:25:36.976Z,10.35
2022-09-28T14:28:28.869Z,10.42
2022-09-28T14:31:00.623Z,10.49
2022-09-28T14:33:32.987Z,10.54
2022-09-28T14:36:10.634Z,10.54
2022-09-28T14:39:05.583Z,10.73
2022-09-28T14:41:41.569Z,10.70
2022-09-28T14:44:18.716Z,10.66
2022-09-28T14:46:49.041Z,10.71
2022-09-28T14:49:23.349Z,10.60
2022-09-28T14:52:00.840Z,10.66
2022-09-28T14:54:42.557Z,10.72
2022-09-28T14:57:22.482Z,10.76
2022-09-28T14:59:52.489Z,10.62
2022-09-28T15:02:28.167Z,10.73
2022-09-28T15:05:15.964Z,10.63
2022-09-28T15:07:49.821Z,10.83
2022-09-28T15:10:30.301Z,10.82
2022-09-28T15:13:05.730Z,11.12
2022-09-28T15:15:41.563Z,11.08
2022-09-28T15:18:19.102Z,10.93
2022-09-28T15:20:50.749Z,10.99
2022-09-28T15:23:29.516Z,10.83
2022-09-28T15:25:59.414Z,10.66
2022-09-28T15:28:39.412Z,10.58
2022-09-28T15:31:14.068Z,10.54
2022-09-28T15:34:02.074Z,10.56
2022-09-28T15:36:38.339Z,10.63
2022-09-28T15:39:17.417Z,10.63
2022-09-28T15:41:49.777Z,10.69
2022-09-28T15:44:37.192Z,10.43
2022-09-28T15:47:28.294Z,10.35
2022-09-28T15:50:04.007Z,10.24
2022-09-28T15:52:37.357Z,10.21
2022-09-28T15:55:21.912Z,10.14
2022-09-28T15:58:20.264Z,10.14
2022-09-28T16:00:54.728Z,10.20
2022-09-28T16:03:31.287Z,10.17
2022-09-28T16:06:07.330Z,10.15
2022-09-28T16:08:47.609Z,10.15
2022-09-28T16:11:31.498Z,10.41
2022-09-28T16:14:10.325Z,10.13
2022-09-28T16:16:53.166Z,10.11
2022-09-28T16:19:28.865Z,10.10
2022-09-28T16:22:00.796Z,10.16
2022-09-28T16:24:38.395Z,10.05
2022-09-28T16:27:28.157Z,10.05
2022-09-28T16:30:14.780Z,10.04
2022-09-28T16:32:56.482Z,10.04
2022-09-28T16:35:29.336Z,10.04
2022-09-28T16:38:16.503Z,10.28
2022-09-28T16:40:53.983Z,10.20
2022-09-28T16:43:27.287Z,10.09
2022-09-28T16:46:17.728Z,9.96
2022-09-28T16:48:51.713Z,9.90
2022-09-28T16:51:24.320Z,9.68
2022-09-28T16:54:12.036Z,9.67
2022-09-28T16:56:44.929Z,9.83
2022-09-28T16:59:14.869Z,9.65
2022-09-28T17:01:44.825Z,9.58
2022-09-28T17:04:16.217Z,9.55
2022-09-28T17:06:46.013Z,9.51
2022-09-28T17:09:27.781Z,9.47
2022-09-28T17:12:00.044Z,9.44
2022-09-28T17:14:31.906Z,9.41
2022-09-28T17:17:08.911Z,9.39
2022-09-28T17:19:35.428Z,9.42
2022-09-28T17:22:11.954Z,9.49
2022-09-28T17:24:45.300Z,9.59
2022-09-28T17:27:18.423Z,9.70
2022-09-28T17:29:48.226Z,9.64
2022-09-28T17:32:24.317Z,9.38
2022-09-28T17:35:06.451Z,9.46
2022-09-28T17:37:26.987Z,9.41
2022-09-28T17:39:56.917Z,9.22
2022-09-28T17:42:26.790Z,9.14
2022-09-28T17:44:57.062Z,9.33
2022-09-28T17:47:34.314Z,9.36
2022-09-28T17:50:25.822Z,9.12
2022-09-28T17:52:57.741Z,9.17
2022-09-28T17:55:31.722Z,9.30
2022-09-28T17:58:21.583Z,9.41
2022-09-28T18:00:52.755Z,9.41
2022-09-28T18:03:24.502Z,9.29
2022-09-28T18:06:10.466Z,9.11
2022-09-28T18:08:43.840Z,8.96
2022-09-28T18:11:15.443Z,9.08
2022-09-28T18:13:46.984Z,9.13
2022-09-28T18:16:17.137Z,9.07
2022-09-28T18:18:49.280Z,9.07
2022-09-28T18:21:19.789Z,9.14
2022-09-28T18:23:49.925Z,9.03
2022-09-28T18:26:19.703Z,8.89
2022-09-28T18:28:52.744Z,8.90
2022-09-28T18:31:22.838Z,8.94
2022-09-28T18:33:53.920Z,8.90
2022-09-28T18:36:31.539Z,8.82
2022-09-28T18:39:02.057Z,8.82
2022-09-28T18:41:32.347Z,8.64
2022-09-28T18:44:02.430Z,8.64
2022-09-28T18:46:34.366Z,8.71
2022-09-28T18:49:07.537Z,8.71
2022-09-28T18:51:39.540Z,8.67
2022-09-28T18:54:09.042Z,8.64
2022-09-28T18:56:42.652Z,8.75
2022-09-28T18:59:12.657Z,8.44
2022-09-28T19:01:43.437Z,8.35
2022-09-28T19:04:13.596Z,8.31
2022-09-28T19:06:44.994Z,8.17
2022-09-28T19:09:13.844Z,8.26
2022-09-28T19:11:43.331Z,8.12
2022-09-28T19:14:14.835Z,8.08
2022-09-28T19:16:46.013Z,8.07
2022-09-28T19:19:18.822Z,8.06
2022-09-28T19:21:51.342Z,7.96
2022-09-28T19:24:21.309Z,8.09
2022-09-28T19:26:53.199Z,8.21
2022-09-28T19:29:24.604Z,8.09
2022-09-28T19:31:56.009Z,8.06
2022-09-28T19:34:26.432Z,8.05
2022-09-28T19:36:55.848Z,7.89
2022-09-28T19:39:25.715Z,7.92
2022-09-28T19:41:57.152Z,8.00
2022-09-28T19:44:29.189Z,8.00
2022-09-28T19:47:05.483Z,7.85
2022-09-28T19:49:38.044Z,7.83
2022-09-28T19:52:14.742Z,7.70
2022-09-28T19:54:51.771Z,7.73
2022-09-28T19:57:21.521Z,7.67
2022-09-28T19:59:53.751Z,7.67
2022-09-28T20:02:24.640Z,7.63
2022-09-28T20:04:55.549Z,7.61
2022-09-28T20:07:25.487Z,7.53
2022-09-28T20:09:55.283Z,7.53
2022-09-28T20:12:25.180Z,7.54
2022-09-28T20:14:54.985Z,7.33
2022-09-28T20:17:24.861Z,7.20
2022-09-28T20:19:55.670Z,7.12
2022-09-28T20:22:24.634Z,7.00
2022-09-28T20:24:54.051Z,6.82
2022-09-28T20:27:26.487Z,6.66
2022-09-28T20:29:56.211Z,6.60
2022-09-28T20:32:26.136Z,6.60
2022-09-28T20:34:56.951Z,6.53
2022-09-28T20:37:26.738Z,6.59
2022-09-28T20:39:58.230Z,6.48
2022-09-28T20:42:29.833Z,6.48
2022-09-28T20:44:59.903Z,6.68
2022-09-28T20:47:29.983Z,6.82
2022-09-28T20:50:01.388Z,6.77
2022-09-28T20:52:31.173Z,6.69
2022-09-28T20:55:01.979Z,6.47
2022-09-28T20:57:33.262Z,6.49
2022-09-28T21:00:05.869Z,6.56
2022-09-28T21:02:35.527Z,6.62
2022-09-28T21:05:06.792Z,6.70
2022-09-28T21:07:36.589Z,6.59
2022-09-28T21:10:11.637Z,6.48
2022-09-28T21:12:42.945Z,6.37
2022-09-28T21:15:12.710Z,6.35
2022-09-28T21:17:43.646Z,6.52
2022-09-28T21:20:15.376Z,6.47
2022-09-28T21:22:45.261Z,6.58
2022-09-28T21:25:15.096Z,6.63
2022-09-28T21:27:46.057Z,6.63
2022-09-28T21:30:17.503Z,6.65
2022-09-28T21:32:49.414Z,6.69
2022-09-28T21:35:18.912Z,6.71
2022-09-28T21:37:48.719Z,6.67
2022-09-28T21:40:20.007Z,6.59
2022-09-28T21:42:49.707Z,6.59
2022-09-28T21:45:19.442Z,6.58
2022-09-28T21:47:50.875Z,6.56
2022-09-28T21:50:22.756Z,6.57
2022-09-28T21:52:57.729Z,6.54
2022-09-28T21:55:27.528Z,6.66
2022-09-28T21:57:57.365Z,6.60
2022-09-28T22:00:34.710Z,6.62
2022-09-28T22:03:05.297Z,6.65
2022-09-28T22:05:34.899Z,6.57
2022-09-28T22:08:04.700Z,6.55
2022-09-28T22:10:34.759Z,6.46
2022-09-28T22:13:04.582Z,6.40
2022-09-28T22:15:34.454Z,6.36
2022-09-28T22:18:04.390Z,6.31
2022-09-28T22:20:34.186Z,6.35
2022-09-28T22:23:03.989Z,6.32
2022-09-28T22:25:33.780Z,6.35
2022-09-28T22:28:03.880Z,6.17
2022-09-28T22:30:35.760Z,6.09
2022-09-28T22:33:06.852Z,6.00
2022-09-28T22:35:36.641Z,6.01
2022-09-28T22:38:07.414Z,5.90
2022-09-28T22:40:38.303Z,5.90
2022-09-28T22:43:13.251Z,5.86
2022-09-28T22:45:43.612Z,5.66
2022-09-28T22:48:13.669Z,5.65
2022-09-28T22:50:51.178Z,5.61
2022-09-28T22:53:20.843Z,5.61
2022-09-28T22:55:51.090Z,5.57
2022-09-28T22:58:21.321Z,5.52
2022-09-28T23:00:51.596Z,5.60
2022-09-28T23:03:21.524Z,5.47
2022-09-28T23:06:09.013Z,5.46
2022-09-28T23:08:39.422Z,5.45
2022-09-28T23:11:09.361Z,5.68
2022-09-28T23:13:39.178Z,5.60
2022-09-28T23:16:11.309Z,5.44
2022-09-28T23:18:41.902Z,5.44
2022-09-28T23:21:17.634Z,5.44
2022-09-28T23:23:49.505Z,5.44
2022-09-28T23:26:21.933Z,5.49
2022-09-28T23:28:52.635Z,5.41
2022-09-28T23:31:31.592Z,5.32
2022-09-28T23:34:03.720Z,5.27
2022-09-28T23:36:34.528Z,5.21
2022-09-28T23:39:04.846Z,5.12
2022-09-28T23:41:34.936Z,5.08
2022-09-28T23:44:04.967Z,5.25
2022-09-28T23:46:34.804Z,5.24
2022-09-28T23:49:05.012Z,5.46
2022-09-28T23:51:34.816Z,5.58
2022-09-28T23:54:06.738Z,5.45
2022-09-28T23:56:36.541Z,5.31
2022-09-28T23:59:07.048Z,4.97
